Time;durP1;ratioP1;P1;durP2;ratioP2;P2;SDS_P1;SDS_P2;PMS_P1;PMS_P2;Temp;Humidity;BMP_temperature;BMP_pressure;BME280_temperature;BME280_humidity;BME280_pressure;Samples;Min_cycle;Max_cycle;Signal;HPM_P1;HPM_P2
2022/07/12 00:02:02;;;;;;;2.53;1.52;;;17.10;99.90;;;;;;5091245;28;20077;-71
2022/07/12 00:04:28;;;;;;;4.05;1.80;;;17.00;99.90;;;;;;5091571;28;20038;-71
2022/07/12 00:06:54;;;;;;;3.75;1.90;;;17.00;99.90;;;;;;5091324;28;20024;-71
2022/07/12 00:09:20;;;;;;;2.88;1.65;;;17.00;99.90;;;;;;5091169;28;20445;-71
2022/07/12 00:11:46;;;;;;;2.78;1.60;;;17.00;99.90;;;;;;5091631;28;20118;-71
2022/07/12 00:14:12;;;;;;;2.95;1.75;;;17.00;99.90;;;;;;5091255;28;20104;-71
2022/07/12 00:16:38;;;;;;;4.00;1.40;;;17.00;99.90;;;;;;5090940;28;20020;-71
2022/07/12 00:19:07;;;;;;;2.20;1.40;;;16.90;99.90;;;;;;5090920;28;20024;-71
2022/07/12 00:21:33;;;;;;;;;;;16.90;99.90;;;;;;5091708;28;20028;-71
2022/07/12 00:23:59;;;;;;;3.38;1.35;;;16.90;99.90;;;;;;5089972;28;19931;-71
2022/07/12 00:26:25;;;;;;;3.88;1.40;;;16.90;99.90;;;;;;5090848;28;20150;-71
2022/07/12 00:28:52;;;;;;;3.03;1.33;;;16.90;99.90;;;;;;5091451;28;20023;-71
2022/07/12 00:31:17;;;;;;;3.33;1.50;;;16.90;99.90;;;;;;5090846;28;20024;-71
2022/07/12 00:33:44;;;;;;;4.57;1.67;;;16.90;99.90;;;;;;5091017;28;20081;-70
2022/07/12 00:36:10;;;;;;;4.57;1.45;;;16.80;99.90;;;;;;5090874;28;20035;-71
2022/07/12 00:38:36;;;;;;;3.20;1.58;;;16.80;99.90;;;;;;5090786;28;20046;-71
2022/07/12 00:41:02;;;;;;;4.05;1.27;;;16.80;99.90;;;;;;5090860;28;20052;-71
2022/07/12 00:43:28;;;;;;;3.95;1.38;;;16.80;99.90;;;;;;5089560;28;20110;-71
2022/07/12 00:45:54;;;;;;;3.50;1.52;;;16.80;99.90;;;;;;5090673;28;20492;-71
2022/07/12 00:48:20;;;;;;;2.45;1.50;;;16.70;99.90;;;;;;5090761;28;20434;-71
2022/07/12 00:50:47;;;;;;;2.05;1.45;;;16.70;99.90;;;;;;5090781;28;20021;-71
2022/07/12 00:53:14;;;;;;;2.85;1.58;;;16.70;99.90;;;;;;5090735;28;20031;-72
2022/07/12 00:55:41;;;;;;;3.58;2.00;;;16.70;99.90;;;;;;5090597;28;20026;-72
2022/07/12 00:58:07;;;;;;;2.08;1.40;;;16.70;99.90;;;;;;5091134;28;20070;-71
2022/07/12 01:00:33;;;;;;;2.45;1.60;;;16.60;99.90;;;;;;5094149;28;20035;-72
2022/07/12 01:03:02;;;;;;;2.72;1.60;;;16.60;99.90;;;;;;5095039;28;20446;-71
2022/07/12 01:05:28;;;;;;;;;;;16.60;99.90;;;;;;5095787;28;20032;-71
2022/07/12 01:07:55;;;;;;;2.53;1.40;;;16.60;99.90;;;;;;5094886;28;19912;-71
2022/07/12 01:10:22;;;;;;;2.92;1.48;;;16.50;99.90;;;;;;5094496;28;20080;-71
2022/07/12 01:12:49;;;;;;;2.65;1.50;;;16.50;99.90;;;;;;5094613;28;20032;-71
2022/07/12 01:15:15;;;;;;;2.13;1.48;;;16.50;99.90;;;;;;5094645;28;20102;-71
2022/07/12 01:17:44;;;;;;;2.90;1.40;;;16.50;99.90;;;;;;5094707;28;20032;-71
2022/07/12 01:20:11;;;;;;;4.15;1.60;;;16.60;99.90;;;;;;5094570;28;20024;-71
2022/07/12 01:22:41;;;;;;;2.35;1.75;;;16.50;99.90;;;;;;5094435;28;20032;-71
2022/07/12 01:25:07;;;;;;;2.25;1.30;;;16.50;99.90;;;;;;5094341;28;20114;-71
2022/07/12 01:27:33;;;;;;;2.58;1.42;;;16.50;99.90;;;;;;5094219;28;20028;-71
2022/07/12 01:30:04;;;;;;;3.60;1.67;;;16.50;99.90;;;;;;5094107;28;20020;-71
2022/07/12 01:32:31;;;;;;;2.05;1.27;;;16.50;99.90;;;;;;5094234;28;20032;-71
2022/07/12 01:34:59;;;;;;;3.58;1.48;;;16.50;99.90;;;;;;5092958;28;20488;-71
2022/07/12 01:37:33;;;;;;;3.90;1.60;;;16.50;99.90;;;;;;5075903;28;20032;-71
2022/07/12 01:39:59;;;;;;;3.55;1.77;;;16.50;99.90;;;;;;5093879;28;20036;-71
2022/07/12 01:42:27;;;;;;;3.28;1.35;;;16.50;99.90;;;;;;5094361;28;20065;-71
2022/07/12 01:44:54;;;;;;;3.05;1.80;;;16.50;99.90;;;;;;5094169;28;20028;-71
2022/07/12 01:47:22;;;;;;;3.65;1.60;;;16.40;99.90;;;;;;5093682;28;20034;-71
2022/07/12 01:49:48;;;;;;;3.97;1.60;;;16.40;99.90;;;;;;5093619;28;20515;-71
2022/07/12 01:52:14;;;;;;;2.42;1.33;;;16.40;99.90;;;;;;5093754;28;20028;-71
2022/07/12 01:54:42;;;;;;;2.53;1.25;;;16.40;99.90;;;;;;5093782;28;20081;-71
2022/07/12 01:57:08;;;;;;;1.95;1.10;;;16.30;99.90;;;;;;5093577;28;20039;-71
2022/07/12 01:59:35;;;;;;;2.20;1.40;;;16.30;99.90;;;;;;5093630;28;20198;-71
2022/07/12 02:02:02;;;;;;;5.13;1.75;;;16.30;99.90;;;;;;5094054;28;20262;-71
2022/07/12 02:04:28;;;;;;;1.75;1.40;;;16.30;99.90;;;;;;5094102;28;20093;-71
2022/07/12 02:06:55;;;;;;;2.25;1.50;;;16.20;99.90;;;;;;5093275;28;20032;-71
2022/07/12 02:09:21;;;;;;;2.22;1.42;;;16.20;99.90;;;;;;5093593;28;20118;-71
2022/07/12 02:11:47;;;;;;;2.15;1.33;;;16.20;99.90;;;;;;5092832;28;20059;-71
2022/07/12 02:14:14;;;;;;;2.42;1.50;;;16.20;99.90;;;;;;5093460;28;20476;-71
2022/07/12 02:16:40;;;;;;;3.63;1.55;;;16.20;99.90;;;;;;5093302;28;20077;-71
2022/07/12 02:19:07;;;;;;;4.30;1.73;;;16.10;99.90;;;;;;5093204;28;20040;-71
2022/07/12 02:21:33;;;;;;;2.47;1.55;;;16.10;99.90;;;;;;5093201;28;20036;-71
2022/07/12 02:23:59;;;;;;;3.63;1.85;;;16.10;99.90;;;;;;5093332;28;20089;-71
2022/07/12 02:26:26;;;;;;;4.22;2.28;;;16.20;99.90;;;;;;5093017;28;20032;-71
2022/07/12 02:28:51;;;;;;;3.08;1.90;;;16.20;99.90;;;;;;5093172;28;20039;-71
2022/07/12 02:31:17;;;;;;;3.67;1.70;;;16.20;99.90;;;;;;5093037;28;20412;-71
2022/07/12 02:33:43;;;;;;;2.70;1.63;;;16.20;99.90;;;;;;5091959;28;20024;-71
2022/07/12 02:36:09;;;;;;;2.95;1.70;;;16.20;99.90;;;;;;5092861;28;20537;-71
2022/07/12 02:38:35;;;;;;;3.30;1.65;;;16.10;99.90;;;;;;5092661;28;20032;-71
2022/07/12 02:41:01;;;;;;;3.03;1.80;;;16.10;99.90;;;;;;5093038;28;20039;-71
2022/07/12 02:43:28;;;;;;;6.03;1.90;;;16.10;99.90;;;;;;5093007;28;20028;-71
2022/07/12 02:46:04;;;;;;;2.70;1.50;;;16.00;99.90;;;;;;5092826;28;20473;-71
2022/07/12 02:48:29;;;;;;;2.83;1.63;;;16.10;99.90;;;;;;5092588;28;20119;-71
2022/07/12 02:50:55;;;;;;;3.33;1.73;;;16.00;99.90;;;;;;5092723;28;20056;-71
2022/07/12 02:53:22;;;;;;;2.85;1.70;;;16.10;99.90;;;;;;5092708;28;20052;-71
2022/07/12 02:55:48;;;;;;;3.53;1.80;;;16.00;99.90;;;;;;5092668;28;20028;-71
2022/07/12 02:58:14;;;;;;;3.00;1.60;;;16.00;99.90;;;;;;5092615;28;20020;-71
2022/07/12 03:00:41;;;;;;;5.07;2.10;;;16.10;99.90;;;;;;5092355;28;20494;-71
2022/07/12 03:03:08;;;;;;;2.95;1.90;;;16.00;99.90;;;;;;5092485;28;20032;-71
2022/07/12 03:05:35;;;;;;;2.90;1.90;;;16.00;99.90;;;;;;5092366;28;20056;-72
2022/07/12 03:08:05;;;;;;;3.17;2.00;;;16.00;99.90;;;;;;5090880;28;20036;-71
2022/07/12 03:10:30;;;;;;;3.65;1.70;;;16.00;99.90;;;;;;5092558;28;20093;-71
2022/07/12 03:12:56;;;;;;;9.38;5.07;;;16.00;99.90;;;;;;5092298;28;20119;-71
2022/07/12 03:15:22;;;;;;;4.15;2.58;;;16.00;99.90;;;;;;5092339;28;20495;-71
2022/07/12 03:17:48;;;;;;;3.40;2.00;;;15.90;99.90;;;;;;5092026;28;20032;-70
2022/07/12 03:20:14;;;;;;;4.07;2.40;;;15.90;99.90;;;;;;5092511;28;20062;-71
2022/07/12 03:22:48;;;;;;;4.68;2.15;;;15.90;99.90;;;;;;5091137;28;20105;-71
2022/07/12 03:25:15;;;;;;;4.97;2.20;;;16.00;99.90;;;;;;5092261;28;20113;-70
2022/07/12 03:27:41;;;;;;;3.70;2.00;;;16.00;99.90;;;;;;5092184;28;20032;-71
2022/07/12 03:30:08;;;;;;;3.25;2.00;;;16.10;99.90;;;;;;5092133;28;20416;-70
2022/07/12 03:32:34;;;;;;;4.30;1.90;;;16.10;99.90;;;;;;5092040;28;20032;-71
2022/07/12 03:35:00;;;;;;;3.85;1.88;;;16.10;99.90;;;;;;5091974;28;20043;-70
2022/07/12 03:37:27;;;;;;;3.00;1.83;;;16.10;99.90;;;;;;5091846;28;20110;-72
2022/07/12 03:39:53;;;;;;;4.45;2.05;;;16.10;99.90;;;;;;5087736;28;20029;-72
2022/07/12 03:42:20;;;;;;;4.43;2.08;;;16.20;99.90;;;;;;5076214;28;20111;-72
2022/07/12 03:44:46;;;;;;;2.97;1.90;;;16.20;99.90;;;;;;5090799;28;20110;-71
2022/07/12 03:47:11;;;;;;;4.38;2.13;;;16.30;99.90;;;;;;5090410;28;20500;-71
2022/07/12 03:49:37;;;;;;;6.20;1.90;;;16.30;99.90;;;;;;5090682;28;20111;-71
2022/07/12 03:52:03;;;;;;;2.60;1.70;;;16.30;99.90;;;;;;5090491;28;20046;-72
2022/07/12 03:54:29;;;;;;;3.90;1.90;;;16.30;99.90;;;;;;5090665;28;20035;-72
2022/07/12 03:57:13;;;;;;;3.42;1.98;;;16.30;99.90;;;;;;5089918;28;20024;-72
2022/07/12 03:59:40;;;;;;;5.85;1.90;;;16.30;99.90;;;;;;5090163;28;20024;-72
2022/07/12 04:02:06;;;;;;;3.13;1.80;;;16.30;99.90;;;;;;5090451;28;20067;-71
2022/07/12 04:04:32;;;;;;;2.80;1.80;;;16.30;99.90;;;;;;5087930;28;20028;-72
2022/07/12 04:06:58;;;;;;;3.50;2.10;;;16.20;99.90;;;;;;5088513;28;20065;-71
2022/07/12 04:09:23;;;;;;;3.63;2.00;;;16.20;99.90;;;;;;5088697;28;20082;-71
2022/07/12 04:11:49;;;;;;;6.18;3.15;;;16.10;99.90;;;;;;5089350;28;20035;-71
2022/07/12 04:14:16;;;;;;;4.53;2.40;;;16.10;99.90;;;;;;5089759;28;20032;-70
2022/07/12 04:16:42;;;;;;;4.68;2.58;;;16.10;99.90;;;;;;5089446;28;20035;-70
2022/07/12 04:19:11;;;;;;;3.63;2.20;;;16.10;99.90;;;;;;5089441;28;20032;-70
2022/07/12 04:21:38;;;;;;;4.88;2.50;;;16.10;99.90;;;;;;5089628;28;20071;-71
2022/07/12 04:24:04;;;;;;;4.65;2.60;;;16.00;99.90;;;;;;5089760;28;20083;-71
2022/07/12 04:26:30;;;;;;;6.70;2.80;;;16.00;99.90;;;;;;5088738;28;20118;-71
2022/07/12 04:28:57;;;;;;;6.90;2.80;;;16.00;99.90;;;;;;5089398;28;20028;-71
2022/07/12 04:31:23;;;;;;;3.35;2.33;;;16.00;99.90;;;;;;5089629;28;20026;-71
2022/07/12 04:33:51;;;;;;;3.50;2.10;;;16.00;99.90;;;;;;5089392;28;20028;-70
2022/07/12 04:36:17;;;;;;;4.22;2.55;;;16.00;99.90;;;;;;5089222;28;20050;-70
2022/07/12 04:38:43;;;;;;;4.50;2.00;;;16.10;99.90;;;;;;5089441;28;20489;-70
2022/07/12 04:41:09;;;;;;;3.38;2.30;;;16.10;99.90;;;;;;5078103;28;20024;-70
2022/07/12 04:43:34;;;;;;;4.40;2.50;;;16.10;99.90;;;;;;5081573;28;20036;-70
2022/07/12 04:46:07;;;;;;;4.13;2.60;;;16.20;99.90;;;;;;5087861;28;20040;-71
2022/07/12 04:48:33;;;;;;;4.13;2.60;;;16.20;99.90;;;;;;5090625;28;20032;-71
2022/07/12 04:50:59;;;;;;;4.57;2.58;;;16.20;99.90;;;;;;5089199;28;20024;-71
2022/07/12 04:53:25;;;;;;;3.88;2.80;;;16.30;99.90;;;;;;5090690;28;20476;-71
2022/07/12 04:55:53;;;;;;;4.63;2.85;;;16.30;99.90;;;;;;5090266;28;20043;-71
2022/07/12 04:58:19;;;;;;;5.27;2.50;;;16.30;99.90;;;;;;5090523;28;20404;-71
2022/07/12 05:00:45;;;;;;;4.97;2.92;;;16.30;99.90;;;;;;5090509;28;20035;-72
2022/07/12 05:03:11;;;;;;;4.60;2.67;;;16.40;99.90;;;;;;5090510;28;20378;-72
2022/07/12 05:08:16;;;;;;;5.25;3.15;;;16.40;99.90;;;;;;5067355;28;20040;-69
2022/07/12 05:10:42;;;;;;;4.72;2.95;;;16.50;99.90;;;;;;5070488;28;20085;-69
2022/07/12 05:13:08;;;;;;;5.45;3.05;;;16.50;99.90;;;;;;5070589;28;20024;-69
2022/07/12 05:15:34;;;;;;;4.70;2.90;;;16.50;99.90;;;;;;5070734;28;20116;-70
2022/07/12 05:18:00;;;;;;;4.72;2.72;;;16.60;99.90;;;;;;5069413;28;20035;-69
2022/07/12 05:20:26;;;;;;;6.40;3.75;;;16.60;99.90;;;;;;5070396;28;20536;-69
2022/07/12 05:22:52;;;;;;;6.50;3.67;;;16.70;99.90;;;;;;5070644;28;20066;-69
2022/07/12 05:25:18;;;;;;;7.97;4.18;;;16.70;99.90;;;;;;5071043;28;20036;-68
2022/07/12 05:27:44;;;;;;;12.32;5.65;;;16.80;99.90;;;;;;5070425;28;20039;-68
2022/07/12 05:30:10;;;;;;;7.80;5.32;;;16.80;99.90;;;;;;5070354;28;20068;-70
2022/07/12 05:32:36;;;;;;;7.43;4.93;;;16.90;99.90;;;;;;5070642;28;20105;-70
2022/07/12 05:35:02;;;;;;;8.02;5.43;;;16.90;99.90;;;;;;5070702;28;20392;-70
2022/07/12 05:37:29;;;;;;;10.82;6.35;;;17.00;99.90;;;;;;5070419;28;20093;-70
2022/07/12 05:39:55;;;;;;;12.50;6.60;;;17.00;99.90;;;;;;5070279;28;20024;-69
2022/07/12 05:42:21;;;;;;;11.95;6.70;;;17.00;99.90;;;;;;5070573;28;20381;-70
2022/07/12 05:44:46;;;;;;;12.15;7.28;;;17.10;99.90;;;;;;5069262;28;20040;-70
2022/07/12 05:47:12;;;;;;;14.95;7.70;;;17.10;99.90;;;;;;5072947;28;20511;-69
2022/07/12 05:49:38;;;;;;;13.10;7.13;;;17.20;99.90;;;;;;5073788;28;20029;-69
2022/07/12 05:54:49;;;;;;;11.07;7.03;;;17.30;99.90;;;;;;5074125;28;20025;-69
2022/07/12 05:57:19;;;;;;;12.73;7.47;;;17.30;99.90;;;;;;5073721;28;20029;-69
2022/07/12 05:59:45;;;;;;;12.55;8.70;;;17.40;99.90;;;;;;5072423;28;20082;-69
2022/07/12 06:02:11;;;;;;;14.70;10.60;;;17.40;99.90;;;;;;5073900;28;20082;-69
2022/07/12 06:04:37;;;;;;;15.07;10.90;;;17.50;99.90;;;;;;5073999;28;20040;-69
2022/07/12 06:07:03;;;;;;;17.08;11.93;;;17.50;99.90;;;;;;5073612;28;20036;-70
2022/07/12 06:09:29;;;;;;;18.92;12.38;;;17.60;99.90;;;;;;5074167;28;20054;-70
2022/07/12 06:11:55;;;;;;;13.85;11.25;;;17.60;99.90;;;;;;5073912;28;20029;-69
2022/07/12 06:14:21;;;;;;;13.73;11.48;;;17.70;99.90;;;;;;5074020;28;20029;-69
2022/07/12 06:16:47;;;;;;;16.30;11.68;;;17.70;99.90;;;;;;5073574;28;20105;-69
2022/07/12 06:19:13;;;;;;;15.23;11.30;;;17.80;99.90;;;;;;5073132;28;20032;-69
2022/07/12 06:21:39;;;;;;;16.73;11.70;;;17.80;99.90;;;;;;5073470;28;20020;-69
2022/07/12 06:24:06;;;;;;;12.80;9.82;;;17.90;99.90;;;;;;5073438;28;20086;-69
2022/07/12 06:26:32;;;;;;;17.05;11.00;;;17.90;99.90;;;;;;5073147;28;20024;-69
2022/07/12 06:28:58;;;;;;;14.27;10.65;;;18.00;99.90;;;;;;5072664;28;20073;-70
2022/07/12 06:31:25;;;;;;;11.68;8.98;;;18.00;99.90;;;;;;5073400;28;20401;-72
2022/07/12 06:33:51;;;;;;;12.45;9.25;;;18.00;99.90;;;;;;5073345;28;20035;-69
2022/07/12 06:36:17;;;;;;;13.70;9.88;;;18.00;99.90;;;;;;5073100;28;20024;-70
2022/07/12 06:38:43;;;;;;;13.95;10.43;;;18.10;99.90;;;;;;5071556;28;20029;-69
2022/07/12 06:41:09;;;;;;;12.80;10.15;;;18.20;99.90;;;;;;5072924;28;20037;-69
2022/07/12 06:43:35;;;;;;;10.30;8.93;;;18.20;99.90;;;;;;5071668;28;20439;-69
2022/07/12 06:46:01;;;;;;;13.52;9.70;;;18.20;99.90;;;;;;5072658;28;20035;-69
2022/07/12 06:48:27;;;;;;;11.10;8.77;;;18.20;99.90;;;;;;5072720;28;20073;-69
2022/07/12 06:50:53;;;;;;;9.88;8.23;;;18.30;99.90;;;;;;5072906;28;20028;-69
2022/07/12 06:53:20;;;;;;;11.70;9.15;;;18.30;99.90;;;;;;5073037;28;20024;-69
2022/07/12 06:55:46;;;;;;;9.13;7.75;;;18.30;99.90;;;;;;5072686;28;20450;-70
2022/07/12 06:58:12;;;;;;;11.50;8.05;;;18.40;99.90;;;;;;5072451;28;20032;-69
2022/07/12 07:00:38;;;;;;;13.45;8.95;;;18.40;99.90;;;;;;5072300;28;20439;-69
2022/07/12 07:03:08;;;;;;;10.85;8.70;;;18.50;99.90;;;;;;5071272;28;20530;-69
2022/07/12 07:05:36;;;;;;;12.75;9.77;;;18.50;99.90;;;;;;5071282;28;20076;-70
2022/07/12 07:08:03;;;;;;;15.40;10.25;;;18.50;99.90;;;;;;5072381;28;20107;-69
2022/07/12 07:10:29;;;;;;;12.98;9.73;;;18.60;99.90;;;;;;5072451;28;20085;-70
2022/07/12 07:12:55;;;;;;;13.77;9.07;;;18.60;99.90;;;;;;5072765;28;20035;-69
2022/07/12 07:15:21;;;;;;;10.27;7.93;;;18.60;99.90;;;;;;5072682;28;20033;-69
2022/07/12 07:17:47;;;;;;;12.95;8.73;;;18.70;99.90;;;;;;5071254;28;20564;-70
2022/07/12 07:20:13;;;;;;;11.00;8.73;;;18.70;99.90;;;;;;5072573;28;20037;-69
2022/07/12 07:22:39;;;;;;;10.73;7.75;;;18.80;99.90;;;;;;5071230;28;20036;-71
2022/07/12 07:25:06;;;;;;;9.45;6.97;;;18.80;99.90;;;;;;5072547;28;20114;-71
2022/07/12 07:27:32;;;;;;;9.25;6.72;;;18.80;99.90;;;;;;5072421;28;20098;-70
2022/07/12 07:32:44;;;;;;;11.43;7.32;;;18.90;99.90;;;;;;5072508;28;20032;-69
2022/07/12 07:35:11;;;;;;;9.80;7.30;;;18.90;99.90;;;;;;5073174;28;20032;-72
2022/07/12 07:37:37;;;;;;;9.02;6.97;;;18.90;99.90;;;;;;5072463;28;20028;-69
2022/07/12 07:40:03;;;;;;;10.18;7.63;;;19.00;99.90;;;;;;5071778;28;20404;-71
2022/07/12 07:42:29;;;;;;;8.90;7.03;;;19.00;99.90;;;;;;5071689;28;20032;-71
2022/07/12 07:44:55;;;;;;;10.95;7.60;;;19.00;99.90;;;;;;5071698;28;20032;-72
2022/07/12 07:47:21;;;;;;;9.52;6.90;;;19.00;99.90;;;;;;5070128;28;20036;-71
2022/07/12 07:49:47;;;;;;;8.93;6.70;;;19.10;99.90;;;;;;5071494;28;20033;-71
2022/07/12 07:52:13;;;;;;;8.23;5.97;;;19.10;99.90;;;;;;5070503;28;20024;-70
2022/07/12 07:54:39;;;;;;;9.02;5.90;;;19.20;99.90;;;;;;5071889;28;20034;-71
2022/07/12 07:57:05;;;;;;;9.60;6.28;;;19.20;99.90;;;;;;5070229;28;20408;-71
2022/07/12 07:59:31;;;;;;;6.97;5.47;;;19.20;99.90;;;;;;5071159;28;20081;-71
2022/07/12 08:01:57;;;;;;;9.27;5.72;;;19.20;99.90;;;;;;5071121;28;20036;-71
2022/07/12 08:04:23;;;;;;;10.13;6.55;;;19.20;99.90;;;;;;5071412;28;20043;-71
2022/07/12 08:06:49;;;;;;;9.80;6.38;;;19.30;99.90;;;;;;5069498;28;20086;-71
2022/07/12 08:09:16;;;;;;;11.85;7.35;;;19.30;99.90;;;;;;5070404;28;20477;-71
2022/07/12 08:11:42;;;;;;;12.00;7.60;;;19.30;99.90;;;;;;5071086;28;20195;-71
2022/07/12 08:14:08;;;;;;;14.75;8.93;;;19.40;99.90;;;;;;5053363;28;20206;-71
2022/07/12 08:16:35;;;;;;;15.25;8.77;;;19.50;99.90;;;;;;5071484;28;20420;-71
2022/07/12 08:19:01;;;;;;;14.77;8.50;;;19.50;99.90;;;;;;5071244;28;20037;-70
2022/07/12 08:21:27;;;;;;;11.13;7.43;;;19.60;99.90;;;;;;5071311;28;20472;-71
2022/07/12 08:23:54;;;;;;;11.50;7.15;;;19.60;99.90;;;;;;5071405;28;20066;-71
2022/07/12 08:26:20;;;;;;;12.15;6.80;;;19.70;99.90;;;;;;5071022;28;20031;-71
2022/07/12 08:28:46;;;;;;;10.95;6.85;;;19.60;99.90;;;;;;5070890;28;20031;-71
2022/07/12 08:31:15;;;;;;;9.75;6.95;;;19.60;99.90;;;;;;5071242;28;20498;-71
2022/07/12 08:33:41;;;;;;;;;;;19.60;99.90;;;;;;5071882;28;20408;-70
2022/07/12 08:36:08;;;;;;;9.77;6.13;;;19.50;99.90;;;;;;5071094;28;19916;-71
2022/07/12 08:38:38;;;;;;;8.07;5.88;;;19.50;99.90;;;;;;5070766;28;20051;-71
2022/07/12 08:41:09;;;;;;;9.00;6.13;;;19.50;99.90;;;;;;5070940;28;20032;-71
2022/07/12 08:43:36;;;;;;;13.95;6.57;;;19.60;99.90;;;;;;5071238;28;20388;-70
2022/07/12 08:46:06;;;;;;;8.68;5.07;;;19.60;99.90;;;;;;5071084;28;20032;-72
2022/07/12 08:48:33;;;;;;;8.98;5.45;;;19.60;99.90;;;;;;5070758;28;20046;-71
2022/07/12 08:51:01;;;;;;;8.20;5.35;;;19.70;99.90;;;;;;5070893;28;20031;-72
2022/07/12 08:53:27;;;;;;;8.05;5.07;;;19.80;99.90;;;;;;5070724;28;20047;-72
2022/07/12 08:55:53;;;;;;;7.55;5.22;;;19.80;99.90;;;;;;5070630;28;20438;-71
2022/07/12 08:58:19;;;;;;;9.20;5.60;;;19.80;99.90;;;;;;5070838;28;20029;-72
2022/07/12 09:00:45;;;;;;;12.10;6.50;;;19.90;99.90;;;;;;5070569;28;20035;-72
2022/07/12 09:03:13;;;;;;;9.07;6.15;;;20.00;99.90;;;;;;5071192;28;20059;-70
2022/07/12 09:05:48;;;;;;;11.23;6.50;;;20.10;99.90;;;;;;5069656;28;20086;-70
2022/07/12 09:08:14;;;;;;;7.70;5.00;;;20.30;99.90;;;;;;5070750;28;20059;-69
2022/07/12 09:10:49;;;;;;;11.60;6.45;;;20.30;99.90;;;;;;5070966;28;20489;-69
2022/07/12 09:13:15;;;;;;;8.48;4.90;;;20.40;99.90;;;;;;5071025;28;20048;-71
2022/07/12 09:15:41;;;;;;;8.65;3.95;;;20.40;99.90;;;;;;5070585;28;20025;-72
2022/07/12 09:18:13;;;;;;;8.10;4.30;;;20.50;99.90;;;;;;5070453;28;20082;-70
2022/07/12 09:20:40;;;;;;;7.25;4.40;;;20.50;99.90;;;;;;5070896;28;20028;-72
2022/07/12 09:23:09;;;;;;;8.93;5.20;;;20.60;99.90;;;;;;5074661;28;20531;-69
2022/07/12 09:25:37;;;;;;;9.27;5.05;;;20.60;99.90;;;;;;5074594;28;20021;-71
2022/07/12 09:28:05;;;;;;;9.57;6.28;;;20.70;99.90;;;;;;5074413;28;20025;-72
2022/07/12 09:30:31;;;;;;;7.53;4.97;;;20.70;99.90;;;;;;5074133;28;20481;-70
2022/07/12 09:36:06;;;;;;;6.28;3.80;;;20.70;99.90;;;;;;5074463;28;20029;-72
2022/07/12 09:38:40;;;;;;;4.85;3.33;;;20.70;99.90;;;;;;5074141;28;20111;-71
2022/07/12 09:41:07;;;;;;;5.82;3.33;;;20.80;99.90;;;;;;5074132;28;20030;-71
2022/07/12 09:43:34;;;;;;;5.18;3.28;;;20.80;99.90;;;;;;5074402;28;20087;-72
2022/07/12 09:46:00;;;;;;;6.13;3.53;;;20.80;99.90;;;;;;5072715;28;20028;-72
2022/07/12 09:48:28;;;;;;;4.40;3.10;;;20.70;99.90;;;;;;5073889;28;20028;-71
2022/07/12 09:50:57;;;;;;;5.20;2.80;;;20.70;99.90;;;;;;5073821;28;20416;-72
2022/07/12 09:53:37;;;;;;;6.00;3.30;;;20.70;99.90;;;;;;5074056;28;20028;-71
2022/07/12 09:56:09;;;;;;;5.15;3.13;;;20.70;99.90;;;;;;5072502;28;20397;-71
2022/07/12 09:58:50;;;;;;;6.85;3.70;;;20.70;99.90;;;;;;5073808;28;20024;-70
2022/07/12 10:01:17;;;;;;;7.75;3.30;;;20.80;99.90;;;;;;5072561;28;20060;-70
2022/07/12 10:03:45;;;;;;;5.00;2.97;;;20.80;99.90;;;;;;5074362;28;20027;-70
2022/07/12 10:06:12;;;;;;;4.53;2.90;;;20.80;99.90;;;;;;5073254;28;20032;-72
2022/07/12 10:08:40;;;;;;;4.28;2.70;;;20.70;99.90;;;;;;5073714;28;20404;-70
2022/07/12 10:11:07;;;;;;;3.78;2.30;;;20.70;99.90;;;;;;5072430;28;20025;-71
2022/07/12 10:13:35;;;;;;;2.83;2.00;;;20.60;99.10;;;;;;5073850;28;20162;-70
2022/07/12 10:16:02;;;;;;;3.45;2.00;;;20.60;98.30;;;;;;5072481;28;20073;-70
2022/07/12 10:18:29;;;;;;;4.18;1.95;;;20.50;98.50;;;;;;5073670;28;20024;-72
2022/07/12 10:20:56;;;;;;;4.38;2.60;;;20.50;98.70;;;;;;5072238;28;20496;-69
2022/07/12 10:23:36;;;;;;;4.18;2.45;;;20.70;98.70;;;;;;5072075;28;20029;-72
2022/07/12 10:26:37;;;;;;;3.33;2.55;;;20.70;98.70;;;;;;5073264;28;20040;-72
2022/07/12 10:29:05;;;;;;;7.45;2.50;;;20.70;98.80;;;;;;5072313;28;20382;-71
2022/07/12 10:31:40;;;;;;;4.40;2.88;;;20.90;98.70;;;;;;5073113;28;20404;-71
2022/07/12 10:34:29;;;;;;;6.60;3.22;;;21.00;98.40;;;;;;5073690;28;20063;-71
2022/07/12 10:36:55;;;;;;;6.20;3.30;;;21.20;98.20;;;;;;5073286;28;20482;-72
2022/07/12 10:39:23;;;;;;;6.82;4.93;;;21.30;98.00;;;;;;5073070;28;20039;-71
2022/07/12 10:42:13;;;;;;;6.53;4.32;;;21.40;97.90;;;;;;5072064;28;20061;-70
2022/07/12 10:44:41;;;;;;;8.63;4.68;;;21.50;98.00;;;;;;5061166;28;20036;-72
2022/07/12 10:47:08;;;;;;;5.35;3.20;;;21.40;98.00;;;;;;5054759;28;20029;-71
2022/07/12 10:49:35;;;;;;;4.28;3.05;;;21.40;98.00;;;;;;5071540;28;20032;-70
2022/07/12 10:52:10;;;;;;;4.90;3.22;;;21.30;98.00;;;;;;5071874;28;20092;-70
2022/07/12 10:54:41;;;;;;;4.53;3.15;;;21.30;98.70;;;;;;5072844;28;20043;-70
2022/07/12 10:57:12;;;;;;;4.55;3.47;;;21.30;99.10;;;;;;5055072;28;20102;-71
2022/07/12 10:59:39;;;;;;;7.25;3.38;;;21.30;98.70;;;;;;5071499;28;20177;-70
2022/07/12 11:02:05;;;;;;;4.18;2.75;;;21.40;98.80;;;;;;5072780;28;20037;-69
2022/07/12 11:04:31;;;;;;;4.05;2.70;;;21.50;98.00;;;;;;5072710;28;20048;-71
2022/07/12 11:07:01;;;;;;;3.65;2.65;;;21.60;98.10;;;;;;5090032;23;20032;-72
2022/07/12 11:09:28;;;;;;;8.05;3.50;;;21.70;97.50;;;;;;5092278;28;20023;-72
2022/07/12 11:11:54;;;;;;;7.43;3.00;;;21.80;97.40;;;;;;5092368;28;20490;-70
2022/07/12 11:14:24;;;;;;;4.35;3.03;;;21.80;96.70;;;;;;5091156;28;20114;-70
2022/07/12 11:16:52;;;;;;;4.32;2.53;;;21.80;96.60;;;;;;5092165;28;20052;-70
2022/07/12 11:19:23;;;;;;;3.30;2.45;;;21.80;96.60;;;;;;5091974;28;20028;-70
2022/07/12 11:21:55;;;;;;;5.97;3.60;;;21.70;96.60;;;;;;5092348;28;20020;-70
2022/07/12 11:24:23;;;;;;;4.82;3.17;;;21.80;96.30;;;;;;5092334;28;20127;-70
2022/07/12 11:26:49;;;;;;;7.60;3.13;;;21.80;95.40;;;;;;5090815;28;20032;-70
2022/07/12 11:29:15;;;;;;;3.50;2.10;;;21.90;95.90;;;;;;5092076;28;20032;-70
2022/07/12 11:31:41;;;;;;;5.93;3.15;;;22.00;95.10;;;;;;5092049;28;20051;-69
2022/07/12 11:34:18;;;;;;;4.03;2.95;;;22.00;95.40;;;;;;5092272;28;20066;-70
2022/07/12 11:36:45;;;;;;;4.70;2.40;;;22.10;95.30;;;;;;5092095;28;20051;-70
2022/07/12 11:39:11;;;;;;;3.78;2.30;;;22.00;95.20;;;;;;5091773;28;20032;-70
2022/07/12 11:41:37;;;;;;;3.88;2.45;;;22.00;95.40;;;;;;5091906;28;20413;-69
2022/07/12 11:44:04;;;;;;;3.88;2.40;;;21.90;95.50;;;;;;5090810;28;20059;-70
2022/07/12 11:46:30;;;;;;;4.18;2.10;;;21.90;95.80;;;;;;5091631;28;20046;-70
2022/07/12 11:48:56;;;;;;;2.65;2.10;;;21.90;95.00;;;;;;5091651;28;20067;-70
2022/07/12 11:51:27;;;;;;;3.83;2.38;;;21.90;95.10;;;;;;5091609;28;20055;-70
2022/07/12 11:53:53;;;;;;;5.20;2.20;;;21.90;95.70;;;;;;5091698;28;20183;-70
2022/07/12 11:56:30;;;;;;;5.43;2.58;;;22.00;95.40;;;;;;5091537;28;20028;-70
2022/07/12 11:58:59;;;;;;;6.30;2.20;;;22.00;95.10;;;;;;5090233;28;20089;-70
2022/07/12 12:01:28;;;;;;;3.53;1.83;;;22.10;95.30;;;;;;5091589;28;20101;-70
2022/07/12 12:03:56;;;;;;;4.75;2.40;;;22.10;95.10;;;;;;5091464;28;20028;-70
2022/07/12 12:06:22;;;;;;;3.20;2.35;;;22.20;94.20;;;;;;5091634;28;20047;-70
2022/07/12 12:08:50;;;;;;;4.05;2.42;;;22.40;93.50;;;;;;5091328;28;20500;-70
2022/07/12 12:11:16;;;;;;;3.78;2.30;;;22.50;93.10;;;;;;5091326;28;20031;-71
2022/07/12 12:13:42;;;;;;;4.75;2.65;;;22.60;93.30;;;;;;5091440;28;20052;-71
2022/07/12 12:16:11;;;;;;;4.50;2.50;;;22.70;92.90;;;;;;5091196;28;20045;-70
2022/07/12 12:18:41;;;;;;;5.80;2.92;;;22.90;92.80;;;;;;5091151;28;20464;-71
2022/07/12 12:21:10;;;;;;;4.80;2.97;;;22.90;92.90;;;;;;5091304;28;20046;-70
2022/07/12 12:23:37;;;;;;;4.13;3.17;;;22.90;93.30;;;;;;5091368;28;20434;-70
2022/07/12 12:26:14;;;;;;;4.47;2.95;;;22.90;93.30;;;;;;5091128;28;20028;-70
2022/07/12 12:28:51;;;;;;;4.10;2.95;;;23.10;92.40;;;;;;5089780;28;20032;-70
2022/07/12 12:31:22;;;;;;;4.90;3.22;;;23.20;91.60;;;;;;5091067;28;20027;-70
2022/07/12 12:33:51;;;;;;;4.05;2.28;;;23.20;91.70;;;;;;5091186;28;20484;-70
2022/07/12 12:36:22;;;;;;;3.80;2.30;;;23.10;92.10;;;;;;5090870;28;20020;-70
2022/07/12 12:38:53;;;;;;;4.57;2.80;;;23.20;91.50;;;;;;5089713;28;20052;-71
2022/07/12 12:41:22;;;;;;;7.15;3.20;;;23.30;91.30;;;;;;5089687;28;20127;-70
2022/07/12 12:43:59;;;;;;;4.22;2.67;;;23.50;91.20;;;;;;5089838;28;20024;-71
2022/07/12 12:49:49;;;;;;;4.70;2.72;;;23.90;90.10;;;;;;5090758;28;20032;-71
2022/07/12 12:52:15;;;;;;;4.95;2.75;;;23.90;90.00;;;;;;5091004;28;20031;-71
2022/07/12 12:54:41;;;;;;;4.53;2.97;;;24.00;90.40;;;;;;5091286;28;20028;-70
2022/07/12 12:57:08;;;;;;;4.03;2.67;;;24.10;90.30;;;;;;5094895;28;20090;-70
2022/07/12 12:59:35;;;;;;;5.50;3.22;;;24.30;90.40;;;;;;5095150;28;20061;-70
2022/07/12 13:02:02;;;;;;;4.97;3.20;;;24.40;90.20;;;;;;5093634;28;20387;-71